createdAt,value
2019-03-18T00:00:55.696Z,5.24
2019-03-18T00:01:55.674Z,5.17
2019-03-18T00:02:55.658Z,5.27
2019-03-18T00:03:55.641Z,5.24
2019-03-18T00:04:55.638Z,5.23
2019-03-18T00:05:55.624Z,5.26
2019-03-18T00:06:55.611Z,5.26
2019-03-18T00:07:55.609Z,5.14
2019-03-18T00:08:55.590Z,5.20
2019-03-18T00:09:55.583Z,5.15
2019-03-18T00:10:55.574Z,5.08
2019-03-18T00:11:55.561Z,5.08
2019-03-18T00:12:55.551Z,5.11
2019-03-18T00:13:55.552Z,5.08
2019-03-18T00:15:01.334Z,5.12
2019-03-18T00:15:56.528Z,5.04
2019-03-18T00:16:55.512Z,5.14
2019-03-18T00:17:55.519Z,5.14
2019-03-18T00:18:55.486Z,5.08
2019-03-18T00:19:55.480Z,5.05
2019-03-18T00:20:55.469Z,5.06
2019-03-18T00:21:55.454Z,5.05
2019-03-18T00:22:55.444Z,5.04
2019-03-18T00:23:55.453Z,5.04
2019-03-18T00:24:55.445Z,5.01
2019-03-18T00:25:55.423Z,4.97
2019-03-18T00:26:55.408Z,5.08
2019-03-18T00:27:55.406Z,4.96
2019-03-18T00:28:55.382Z,5.09
2019-03-18T00:29:55.375Z,5.09
2019-03-18T00:30:55.364Z,5.17
2019-03-18T00:31:55.365Z,5.15
2019-03-18T00:32:55.345Z,5.14
2019-03-18T00:33:55.331Z,5.14
2019-03-18T00:34:55.351Z,5.11
2019-03-18T00:35:55.315Z,5.17
2019-03-18T00:36:55.307Z,5.05
2019-03-18T00:37:55.355Z,5.11
2019-03-18T00:38:55.293Z,5.05
2019-03-18T00:39:55.274Z,5.06
2019-03-18T00:40:55.267Z,5.08
2019-03-18T00:41:55.263Z,5.08
2019-03-18T00:42:55.241Z,4.99
2019-03-18T00:43:55.225Z,4.97
2019-03-18T00:44:55.217Z,5.02
2019-03-18T00:45:55.216Z,4.99
2019-03-18T00:46:55.235Z,4.97
2019-03-18T00:47:55.185Z,4.94
2019-03-18T00:48:55.185Z,4.93
2019-03-18T00:49:55.180Z,4.90
2019-03-18T00:50:55.162Z,4.87
2019-03-18T00:51:55.145Z,4.80
2019-03-18T00:52:55.135Z,4.84
2019-03-18T00:53:55.120Z,4.84
2019-03-18T00:54:55.111Z,4.88
2019-03-18T00:55:55.112Z,4.93
2019-03-18T00:56:55.093Z,4.83
2019-03-18T00:57:55.104Z,4.90
2019-03-18T00:58:55.068Z,4.77
2019-03-18T00:59:55.084Z,4.74
2019-03-18T01:00:55.087Z,4.84
2019-03-18T01:01:55.056Z,4.74
2019-03-18T01:02:55.026Z,4.67
2019-03-18T01:03:55.025Z,4.72
2019-03-18T01:04:55.007Z,4.67
2019-03-18T01:05:55.031Z,4.64
2019-03-18T01:06:54.998Z,4.75
2019-03-18T01:07:54.979Z,4.72
2019-03-18T01:08:54.967Z,4.72
2019-03-18T01:09:54.975Z,4.67
2019-03-18T01:10:54.976Z,4.67
2019-03-18T01:11:54.934Z,4.67
2019-03-18T01:12:54.923Z,4.65
2019-03-18T01:13:54.913Z,4.72
2019-03-18T01:14:54.917Z,4.64
2019-03-18T01:15:54.895Z,4.67
2019-03-18T01:16:54.903Z,4.62
2019-03-18T01:17:54.872Z,4.62
2019-03-18T01:18:54.895Z,4.65
2019-03-18T01:19:54.854Z,4.68
2019-03-18T01:20:54.843Z,4.56
2019-03-18T01:21:54.864Z,4.54
2019-03-18T01:22:54.845Z,4.56
2019-03-18T01:23:54.818Z,4.49
2019-03-18T01:24:54.801Z,4.57
2019-03-18T01:25:54.793Z,4.47
2019-03-18T01:26:54.789Z,4.57
2019-03-18T01:27:54.776Z,4.51
2019-03-18T01:28:54.761Z,4.59
2019-03-18T01:29:54.757Z,4.51
2019-03-18T01:30:54.753Z,4.47
2019-03-18T01:31:54.742Z,4.47
2019-03-18T01:32:54.750Z,4.46
2019-03-18T01:33:54.758Z,4.49
2019-03-18T01:34:54.759Z,4.49
2019-03-18T01:35:54.691Z,4.35
2019-03-18T01:36:54.718Z,4.35
2019-03-18T01:37:54.671Z,4.35
2019-03-18T01:38:54.654Z,4.36
2019-03-18T01:39:54.643Z,4.42
2019-03-18T01:40:54.632Z,4.35
2019-03-18T01:41:54.635Z,4.35
2019-03-18T01:42:54.612Z,4.35
2019-03-18T01:43:54.610Z,4.34
2019-03-18T01:44:54.595Z,4.29
2019-03-18T01:45:54.606Z,4.26
2019-03-18T01:46:54.583Z,4.25
2019-03-18T01:47:54.574Z,4.24
2019-03-18T01:48:54.552Z,4.20
2019-03-18T01:49:54.541Z,4.28
2019-03-18T01:50:54.531Z,4.24
2019-03-18T01:51:54.531Z,4.26
2019-03-18T01:52:54.514Z,4.28
2019-03-18T01:53:54.512Z,4.31
2019-03-18T01:54:54.507Z,4.26
2019-03-18T01:55:54.518Z,4.28
2019-03-18T01:56:54.478Z,4.10
2019-03-18T01:57:54.465Z,4.20
2019-03-18T01:58:54.449Z,4.16
2019-03-18T01:59:54.436Z,4.10
2019-03-18T02:00:54.429Z,4.16
2019-03-18T02:01:54.430Z,4.08
2019-03-18T02:02:54.405Z,4.14
2019-03-18T02:03:54.397Z,4.06
2019-03-18T02:04:54.387Z,3.98
2019-03-18T02:05:54.375Z,4.04
2019-03-18T02:06:54.379Z,4.02
2019-03-18T02:07:54.352Z,4.08
2019-03-18T02:08:54.379Z,4.08
2019-03-18T02:09:54.400Z,4.02
2019-03-18T02:10:54.339Z,4.04
2019-03-18T02:11:54.321Z,3.98
2019-03-18T02:12:54.303Z,4.04
2019-03-18T02:13:54.289Z,3.96
2019-03-18T02:14:54.278Z,4.07
2019-03-18T02:15:54.277Z,4.06
2019-03-18T02:16:54.272Z,3.99
2019-03-18T02:17:54.268Z,3.90
2019-03-18T02:18:54.274Z,3.93
2019-03-18T02:19:54.243Z,3.89
2019-03-18T02:20:54.223Z,3.89
2019-03-18T02:21:54.228Z,3.96
2019-03-18T02:22:54.198Z,3.93
2019-03-18T02:23:54.204Z,3.92
2019-03-18T02:24:54.178Z,3.86
2019-03-18T02:25:54.168Z,3.92
2019-03-18T02:26:54.162Z,3.84
2019-03-18T02:27:54.188Z,3.90
2019-03-18T02:28:54.147Z,3.98
2019-03-18T02:29:54.143Z,3.86
2019-03-18T02:30:54.125Z,3.89
2019-03-18T02:31:54.164Z,3.84
2019-03-18T02:32:54.102Z,3.88
2019-03-18T02:33:54.098Z,3.75
2019-03-18T02:34:54.070Z,3.82
2019-03-18T02:35:54.069Z,3.81
2019-03-18T02:36:54.052Z,3.81
2019-03-18T02:37:54.050Z,3.72
2019-03-18T02:38:54.029Z,3.80
2019-03-18T02:39:54.028Z,3.72
2019-03-18T02:40:54.009Z,3.81
2019-03-18T02:41:54.027Z,3.84
2019-03-18T02:42:53.993Z,3.75
2019-03-18T02:43:53.985Z,3.72
2019-03-18T02:44:53.975Z,3.71
2019-03-18T02:46:09.394Z,3.67
2019-03-18T02:46:54.946Z,3.74
2019-03-18T02:47:53.946Z,3.72
2019-03-18T02:48:53.926Z,3.78
2019-03-18T02:49:53.920Z,3.70
2019-03-18T02:50:53.912Z,3.70
2019-03-18T02:51:53.894Z,3.60
2019-03-18T02:52:53.896Z,3.74
2019-03-18T02:53:53.873Z,3.62
2019-03-18T02:54:53.873Z,3.74
2019-03-18T02:55:53.857Z,3.56
2019-03-18T02:56:53.847Z,3.60
2019-03-18T02:57:53.849Z,3.67
2019-03-18T02:58:53.824Z,3.62
2019-03-18T02:59:53.812Z,3.62
2019-03-18T03:00:53.803Z,3.72
2019-03-18T03:01:53.789Z,3.68
2019-03-18T03:02:53.844Z,3.63
2019-03-18T03:03:53.770Z,3.59
2019-03-18T03:04:53.784Z,3.64
2019-03-18T03:05:53.766Z,3.54
2019-03-18T03:06:53.743Z,3.54
2019-03-18T03:07:53.737Z,3.60
2019-03-18T03:08:53.717Z,3.54
2019-03-18T03:09:53.712Z,3.56
2019-03-18T03:10:53.703Z,3.63
2019-03-18T03:11:53.698Z,3.56
2019-03-18T03:12:53.689Z,3.59
2019-03-18T03:13:53.666Z,3.53
2019-03-18T03:14:53.658Z,3.57
2019-03-18T03:15:53.659Z,3.54
2019-03-18T03:16:53.695Z,3.60
2019-03-18T03:17:53.663Z,3.57
2019-03-18T03:18:53.625Z,3.57
2019-03-18T03:19:53.603Z,3.60
2019-03-18T03:20:53.592Z,3.60
2019-03-18T03:21:53.582Z,3.60
2019-03-18T03:22:53.579Z,3.54
2019-03-18T03:23:53.570Z,3.60
2019-03-18T03:24:53.555Z,3.57
2019-03-18T03:25:53.556Z,3.56
2019-03-18T03:26:53.533Z,3.59
2019-03-18T03:27:53.552Z,3.67
2019-03-18T03:28:53.515Z,3.63
2019-03-18T03:29:53.500Z,3.57
2019-03-18T03:30:53.489Z,3.60
2019-03-18T03:31:53.480Z,3.57
2019-03-18T03:32:53.483Z,3.59
2019-03-18T03:33:53.467Z,3.62
2019-03-18T03:34:53.448Z,3.72
2019-03-18T03:35:53.450Z,3.75
2019-03-18T03:36:53.433Z,3.60
2019-03-18T03:37:53.430Z,3.72
2019-03-18T03:38:53.410Z,3.71
2019-03-18T03:39:53.400Z,3.70
2019-03-18T03:40:53.395Z,3.82
2019-03-18T03:41:53.394Z,3.90
2019-03-18T03:42:53.410Z,3.96
2019-03-18T03:43:53.359Z,3.93
2019-03-18T03:44:53.344Z,3.90
2019-03-18T03:45:53.344Z,3.90
2019-03-18T03:46:53.346Z,3.93
2019-03-18T03:47:53.319Z,3.98
2019-03-18T03:48:53.317Z,4.00
2019-03-18T03:49:53.293Z,3.96
2019-03-18T03:50:53.309Z,3.99
2019-03-18T03:51:53.276Z,4.07
2019-03-18T03:52:53.271Z,4.02
2019-03-18T03:53:53.263Z,4.14
2019-03-18T03:54:53.242Z,4.14
2019-03-18T03:55:53.235Z,4.11
2019-03-18T03:56:53.218Z,4.11
2019-03-18T03:57:53.211Z,4.16
2019-03-18T03:58:53.215Z,4.13
2019-03-18T03:59:53.189Z,4.11
2019-03-18T04:00:53.176Z,4.17
2019-03-18T04:01:53.167Z,4.20
2019-03-18T04:02:53.158Z,4.17
2019-03-18T04:03:53.172Z,4.10
2019-03-18T04:04:53.137Z,4.21
2019-03-18T04:05:53.177Z,4.29
2019-03-18T04:06:53.135Z,4.21
2019-03-18T04:07:53.113Z,4.25
2019-03-18T04:08:53.125Z,4.20
2019-03-18T04:09:53.085Z,4.29
2019-03-18T04:10:53.072Z,4.29
2019-03-18T04:11:53.065Z,4.24
2019-03-18T04:12:53.053Z,4.28
2019-03-18T04:13:53.072Z,4.29
2019-03-18T04:14:53.039Z,4.29
2019-03-18T04:15:53.023Z,4.25
2019-03-18T04:17:01.578Z,4.36
2019-03-18T04:17:54.000Z,4.36
2019-03-18T04:18:53.006Z,4.35
2019-03-18T04:19:52.996Z,4.39
2019-03-18T04:20:52.986Z,4.39
2019-03-18T04:21:52.993Z,4.34
2019-03-18T04:22:52.959Z,4.38
2019-03-18T04:23:52.950Z,4.42
2019-03-18T04:24:52.929Z,4.39
2019-03-18T04:25:52.928Z,4.35
2019-03-18T04:26:52.921Z,4.38
2019-03-18T04:27:52.912Z,4.35
2019-03-18T04:28:52.918Z,4.35
2019-03-18T04:29:52.877Z,4.38
2019-03-18T04:30:52.872Z,4.35
2019-03-18T04:31:52.862Z,4.35
2019-03-18T04:32:52.846Z,4.38
2019-03-18T04:33:52.849Z,4.35
2019-03-18T04:34:52.825Z,4.36
2019-03-18T04:35:53.152Z,4.26
2019-03-18T04:36:52.812Z,4.32
2019-03-18T04:37:52.792Z,4.26
2019-03-18T04:38:52.797Z,4.32
2019-03-18T04:39:52.773Z,4.17
2019-03-18T04:40:52.770Z,4.26
2019-03-18T04:41:52.754Z,4.20
2019-03-18T04:42:52.753Z,4.26
2019-03-18T04:43:52.751Z,4.18
2019-03-18T04:44:52.738Z,4.29
2019-03-18T04:45:52.739Z,4.28
2019-03-18T04:46:52.700Z,4.26
2019-03-18T04:47:52.689Z,4.16
2019-03-18T04:48:52.691Z,4.24
2019-03-18T04:49:52.670Z,4.24
2019-03-18T04:50:52.660Z,4.29
2019-03-18T04:51:52.646Z,4.28
2019-03-18T04:52:52.652Z,4.31
2019-03-18T04:53:52.639Z,4.29
2019-03-18T04:54:52.620Z,4.34
2019-03-18T04:55:52.625Z,4.24
2019-03-18T04:56:52.604Z,4.24
2019-03-18T04:57:52.587Z,4.29
2019-03-18T04:58:52.584Z,4.24
2019-03-18T04:59:52.575Z,4.28
2019-03-18T05:00:52.568Z,4.29
2019-03-18T05:01:52.543Z,4.29
2019-03-18T05:02:52.532Z,4.25
2019-03-18T05:03:52.534Z,4.35
2019-03-18T05:04:52.520Z,4.29
2019-03-18T05:05:52.513Z,4.32
2019-03-18T05:06:52.501Z,4.25
2019-03-18T05:07:52.480Z,4.28
2019-03-18T05:08:52.650Z,4.35
2019-03-18T05:09:52.471Z,4.18
2019-03-18T05:10:52.452Z,4.25
2019-03-18T05:11:52.593Z,4.26
2019-03-18T05:12:52.429Z,4.28
2019-03-18T05:13:52.489Z,4.26
2019-03-18T05:14:52.426Z,4.24
2019-03-18T05:15:52.425Z,4.28
2019-03-18T05:16:52.401Z,4.25
2019-03-18T05:17:52.378Z,4.17
2019-03-18T05:18:52.386Z,4.18
2019-03-18T05:19:52.371Z,4.24
2019-03-18T05:20:52.359Z,4.28
2019-03-18T05:21:52.336Z,4.17
2019-03-18T05:22:52.324Z,4.17
2019-03-18T05:23:52.315Z,4.11
2019-03-18T05:24:52.320Z,4.28
2019-03-18T05:25:52.301Z,4.18
2019-03-18T05:26:52.283Z,4.20
2019-03-18T05:27:52.286Z,4.31
2019-03-18T05:28:52.435Z,4.20
2019-03-18T05:29:52.367Z,4.29
2019-03-18T05:30:52.477Z,4.26
2019-03-18T05:31:52.315Z,4.31
2019-03-18T05:32:52.296Z,4.36
2019-03-18T05:33:52.211Z,4.36
2019-03-18T05:34:52.241Z,4.39
2019-03-18T05:35:52.202Z,4.39
2019-03-18T05:36:52.238Z,4.36
2019-03-18T05:37:52.207Z,4.44
2019-03-18T05:38:52.168Z,4.38
2019-03-18T05:39:52.160Z,4.39
2019-03-18T05:40:52.142Z,4.34
2019-03-18T05:41:52.151Z,4.34
2019-03-18T05:42:52.116Z,4.36
2019-03-18T05:43:52.121Z,4.25
2019-03-18T05:44:52.107Z,4.28
2019-03-18T05:45:52.086Z,4.28
2019-03-18T05:46:52.077Z,4.24
2019-03-18T05:47:52.066Z,4.21
2019-03-18T05:48:52.058Z,4.18
2019-03-18T05:49:53.981Z,4.21
2019-03-18T05:50:52.041Z,4.14
2019-03-18T05:51:52.030Z,4.21
2019-03-18T05:52:52.013Z,4.11
2019-03-18T05:53:52.002Z,4.20
2019-03-18T05:54:52.003Z,4.20
2019-03-18T05:55:51.981Z,4.20
2019-03-18T05:56:51.973Z,4.20
2019-03-18T05:57:51.962Z,4.29
2019-03-18T05:58:51.951Z,4.20
2019-03-18T05:59:51.950Z,4.24
2019-03-18T06:00:51.934Z,4.20
2019-03-18T06:01:51.921Z,4.25
2019-03-18T06:02:51.973Z,4.28
2019-03-18T06:03:51.898Z,4.26
2019-03-18T06:04:51.904Z,4.28
2019-03-18T06:05:51.885Z,4.38
2019-03-18T06:06:51.877Z,4.36
2019-03-18T06:07:51.861Z,4.44
2019-03-18T06:08:51.848Z,4.34
2019-03-18T06:09:51.845Z,4.36
2019-03-18T06:10:51.835Z,4.39
2019-03-18T06:11:51.826Z,4.42
2019-03-18T06:12:51.804Z,4.46
2019-03-18T06:13:51.797Z,4.43
2019-03-18T06:14:51.798Z,4.47
2019-03-18T06:15:51.776Z,4.46
2019-03-18T06:16:51.780Z,4.59
2019-03-18T06:17:53.089Z,4.56
2019-03-18T06:18:51.741Z,4.62
2019-03-18T06:19:51.746Z,4.64
2019-03-18T06:20:51.735Z,4.62
2019-03-18T06:21:51.726Z,4.61
2019-03-18T06:22:51.700Z,4.65
2019-03-18T06:23:51.706Z,4.71
2019-03-18T06:24:51.688Z,4.83
2019-03-18T06:25:51.719Z,4.80
2019-03-18T06:26:51.774Z,4.84
2019-03-18T06:27:51.649Z,4.87
2019-03-18T06:28:51.642Z,4.77
2019-03-18T06:29:51.650Z,4.74
2019-03-18T06:30:51.622Z,4.86
2019-03-18T06:31:51.608Z,4.83
2019-03-18T06:32:51.598Z,4.86
2019-03-18T06:33:51.602Z,4.72
2019-03-18T06:34:51.585Z,4.77
2019-03-18T06:35:51.578Z,4.90
2019-03-18T06:36:51.557Z,4.96
2019-03-18T06:37:51.544Z,4.99
2019-03-18T06:38:51.538Z,5.01
2019-03-18T06:39:51.523Z,4.90
2019-03-18T06:40:51.519Z,5.01
2019-03-18T06:41:51.505Z,4.99
2019-03-18T06:42:51.502Z,5.12
2019-03-18T06:43:51.488Z,4.97
2019-03-18T06:44:51.474Z,5.06
2019-03-18T06:45:51.465Z,5.04
2019-03-18T06:46:51.454Z,5.04
2019-03-18T06:48:03.881Z,5.05
2019-03-18T06:48:52.431Z,5.06
2019-03-18T06:49:51.453Z,5.02
2019-03-18T06:50:51.412Z,5.08
2019-03-18T06:51:51.407Z,5.12
2019-03-18T06:52:51.388Z,5.11
2019-03-18T06:53:51.386Z,5.09
2019-03-18T06:54:51.394Z,5.14
2019-03-18T06:55:51.387Z,5.17
2019-03-18T06:56:51.351Z,5.02
2019-03-18T06:57:51.340Z,5.12
2019-03-18T06:58:51.343Z,5.14
2019-03-18T06:59:51.315Z,5.12
2019-03-18T07:00:51.327Z,5.20
2019-03-18T07:01:51.296Z,5.17
2019-03-18T07:02:51.285Z,5.19
2019-03-18T07:03:51.329Z,5.11
2019-03-18T07:04:51.269Z,5.14
2019-03-18T07:05:51.263Z,5.17
2019-03-18T07:06:51.243Z,5.27
2019-03-18T07:07:51.256Z,5.26
2019-03-18T07:08:51.241Z,5.29
2019-03-18T07:09:51.212Z,5.33
2019-03-18T07:10:53.414Z,5.40
2019-03-18T07:11:51.191Z,5.41
2019-03-18T07:12:51.192Z,5.44
2019-03-18T07:13:51.182Z,5.35
2019-03-18T07:14:51.160Z,5.41
2019-03-18T07:15:51.170Z,5.38
2019-03-18T07:16:51.145Z,5.45
2019-03-18T07:17:51.129Z,5.58
2019-03-18T07:18:51.121Z,5.51
2019-03-18T07:19:51.108Z,5.62
2019-03-18T07:20:51.125Z,5.59
2019-03-18T07:21:51.086Z,5.63
2019-03-18T07:22:51.076Z,5.74
2019-03-18T07:23:51.070Z,5.74
2019-03-18T07:24:51.063Z,5.73
2019-03-18T07:25:51.058Z,5.77
2019-03-18T07:26:51.059Z,5.78
2019-03-18T07:27:51.024Z,5.77
2019-03-18T07:28:51.020Z,5.70
2019-03-18T07:29:51.005Z,5.75
2019-03-18T07:30:51.038Z,5.81
2019-03-18T07:31:50.986Z,5.70
2019-03-18T07:32:50.980Z,5.74
2019-03-18T07:33:50.960Z,5.75
2019-03-18T07:34:50.954Z,5.80
2019-03-18T07:35:50.967Z,5.70
2019-03-18T07:36:50.934Z,5.75
2019-03-18T07:37:50.929Z,5.84
2019-03-18T07:38:50.918Z,5.87
2019-03-18T07:39:50.898Z,5.81
2019-03-18T07:40:50.897Z,5.85
2019-03-18T07:41:50.880Z,5.77
2019-03-18T07:42:50.870Z,5.78
2019-03-18T07:43:50.872Z,5.84
2019-03-18T07:44:50.846Z,5.90
2019-03-18T07:45:50.857Z,5.88
2019-03-18T07:46:50.830Z,5.90
2019-03-18T07:47:50.815Z,5.93
2019-03-18T07:48:50.806Z,5.96
2019-03-18T07:49:50.811Z,5.96
2019-03-18T07:50:50.809Z,5.96
2019-03-18T07:51:50.776Z,6.02
2019-03-18T07:52:50.773Z,5.87
2019-03-18T07:53:50.780Z,5.95
2019-03-18T07:54:50.748Z,5.98
2019-03-18T07:55:50.856Z,6.01
2019-03-18T07:56:50.726Z,6.05
2019-03-18T07:57:50.722Z,6.02
2019-03-18T07:58:50.703Z,6.08
2019-03-18T07:59:50.689Z,6.05
2019-03-18T08:00:50.817Z,6.11
2019-03-18T08:01:50.693Z,6.11
2019-03-18T08:02:50.660Z,6.20
2019-03-18T08:03:50.649Z,6.16
2019-03-18T08:04:50.646Z,6.19
2019-03-18T08:05:50.656Z,6.17
2019-03-18T08:06:50.629Z,6.16
2019-03-18T08:07:50.609Z,6.21
2019-03-18T08:08:53.314Z,6.13
2019-03-18T08:09:50.586Z,6.14
2019-03-18T08:10:50.591Z,6.21
2019-03-18T08:11:50.588Z,6.24
2019-03-18T08:12:50.554Z,6.13
2019-03-18T08:13:50.546Z,6.08
2019-03-18T08:14:50.532Z,6.20
2019-03-18T08:15:50.524Z,6.16
2019-03-18T08:16:50.531Z,6.06
2019-03-18T08:17:50.501Z,6.10
2019-03-18T08:18:50.491Z,6.06
2019-03-18T08:19:50.481Z,6.06
2019-03-18T08:20:50.474Z,6.11
2019-03-18T08:21:50.493Z,6.13
2019-03-18T08:22:50.449Z,6.13
2019-03-18T08:23:50.440Z,6.16
2019-03-18T08:24:50.438Z,6.16
2019-03-18T08:25:50.422Z,6.20
2019-03-18T08:26:50.425Z,6.32
2019-03-18T08:27:50.397Z,6.30
2019-03-18T08:28:50.389Z,6.24
2019-03-18T08:29:50.376Z,6.38
2019-03-18T08:30:50.365Z,6.20
2019-03-18T08:31:50.367Z,6.21
2019-03-18T08:32:50.348Z,6.16
2019-03-18T08:33:50.334Z,6.16
2019-03-18T08:34:50.324Z,6.28
2019-03-18T08:35:50.317Z,6.17
2019-03-18T08:36:50.326Z,6.25
2019-03-18T08:37:50.293Z,6.39
2019-03-18T08:38:50.283Z,6.55
2019-03-18T08:39:50.273Z,6.48
2019-03-18T08:40:50.262Z,6.55
2019-03-18T08:41:50.268Z,6.69
2019-03-18T08:42:50.240Z,6.73
2019-03-18T08:43:50.232Z,6.71
2019-03-18T08:44:50.221Z,6.82
2019-03-18T08:45:50.212Z,6.87
2019-03-18T08:46:50.210Z,6.91
2019-03-18T08:47:50.192Z,6.89
2019-03-18T08:48:55.733Z,6.93
2019-03-18T08:49:51.169Z,7.08
2019-03-18T08:50:50.162Z,7.01
2019-03-18T08:51:50.166Z,6.99
2019-03-18T08:52:50.137Z,6.91
2019-03-18T08:53:50.129Z,7.01
2019-03-18T08:54:50.115Z,7.01
2019-03-18T08:55:50.119Z,7.07
2019-03-18T08:56:50.105Z,7.16
2019-03-18T08:57:50.086Z,7.21
2019-03-18T08:58:50.080Z,7.27
2019-03-18T08:59:50.064Z,7.34
2019-03-18T09:00:50.057Z,7.29
2019-03-18T09:01:50.060Z,7.23
2019-03-18T09:02:50.033Z,7.21
2019-03-18T09:03:50.026Z,7.18
2019-03-18T09:04:50.011Z,7.27
2019-03-18T09:05:50.001Z,7.26
2019-03-18T09:06:50.015Z,7.30
2019-03-18T09:07:49.984Z,7.32
2019-03-18T09:08:49.972Z,7.42
2019-03-18T09:09:49.960Z,7.45
2019-03-18T09:10:49.953Z,7.48
2019-03-18T09:11:49.959Z,7.60
2019-03-18T09:12:49.928Z,7.50
2019-03-18T09:13:49.917Z,7.63
2019-03-18T09:14:49.985Z,7.79
2019-03-18T09:15:49.926Z,7.89
2019-03-18T09:16:49.896Z,7.91
2019-03-18T09:17:49.876Z,7.86
2019-03-18T09:18:49.867Z,7.73
2019-03-18T09:19:49.854Z,7.77
2019-03-18T09:20:49.844Z,7.94
2019-03-18T09:21:49.844Z,8.07
2019-03-18T09:22:49.824Z,8.14
2019-03-18T09:23:49.815Z,8.07
2019-03-18T09:24:49.801Z,8.06
2019-03-18T09:25:49.796Z,8.12
2019-03-18T09:27:01.497Z,8.18
2019-03-18T09:27:50.767Z,8.27
2019-03-18T09:28:49.772Z,8.22
2019-03-18T09:29:49.757Z,8.24
2019-03-18T09:30:49.736Z,8.20
2019-03-18T09:31:49.742Z,8.09
2019-03-18T09:32:49.714Z,8.04
2019-03-18T09:33:49.724Z,8.06
2019-03-18T09:34:49.694Z,8.13
2019-03-18T09:35:49.685Z,8.13
2019-03-18T09:36:49.683Z,8.27
2019-03-18T09:37:49.668Z,8.24
2019-03-18T09:38:49.651Z,8.18
2019-03-18T09:39:49.641Z,8.28
2019-03-18T09:40:49.634Z,8.42
2019-03-18T09:41:49.632Z,8.52
2019-03-18T09:42:49.609Z,8.50
2019-03-18T09:43:49.599Z,8.47
2019-03-18T09:44:49.587Z,8.39
2019-03-18T09:45:49.583Z,8.39
2019-03-18T09:46:49.577Z,8.28
2019-03-18T09:47:49.555Z,8.32
2019-03-18T09:48:49.549Z,8.25
2019-03-18T09:49:49.537Z,8.36
2019-03-18T09:50:49.523Z,8.40
2019-03-18T09:51:49.526Z,8.43
2019-03-18T09:52:49.503Z,8.36
2019-03-18T09:53:49.493Z,8.37
2019-03-18T09:54:49.483Z,8.34
2019-03-18T09:55:49.470Z,8.43
2019-03-18T09:56:49.488Z,8.43
2019-03-18T09:57:49.454Z,8.39
2019-03-18T09:58:49.440Z,8.36
2019-03-18T09:59:49.431Z,8.28
2019-03-18T10:00:49.419Z,8.28
2019-03-18T10:01:49.407Z,8.20
2019-03-18T10:02:49.423Z,8.21
2019-03-18T10:03:49.386Z,8.31
2019-03-18T10:04:49.376Z,8.25
2019-03-18T10:05:49.376Z,8.32
2019-03-18T10:06:49.362Z,8.31
2019-03-18T10:07:49.353Z,8.37
2019-03-18T10:08:49.351Z,8.40
2019-03-18T10:09:49.325Z,8.46
2019-03-18T10:10:49.314Z,8.50
2019-03-18T10:11:49.303Z,8.45
2019-03-18T10:12:49.310Z,8.57
2019-03-18T10:13:49.284Z,8.46
2019-03-18T10:14:49.269Z,8.61
2019-03-18T10:15:49.261Z,8.58
2019-03-18T10:16:49.249Z,8.47
2019-03-18T10:17:49.314Z,8.58
2019-03-18T10:18:49.237Z,8.63
2019-03-18T10:19:49.216Z,8.55
2019-03-18T10:20:49.205Z,8.60
2019-03-18T10:21:49.197Z,8.80
2019-03-18T10:22:49.195Z,8.79
2019-03-18T10:23:49.175Z,8.79
2019-03-18T10:24:49.162Z,8.67
2019-03-18T10:25:49.156Z,8.86
2019-03-18T10:26:49.149Z,9.03
2019-03-18T10:27:49.137Z,9.16
2019-03-18T10:28:49.146Z,9.13
2019-03-18T10:29:49.110Z,9.06
2019-03-18T10:30:49.107Z,8.85
2019-03-18T10:31:49.090Z,8.88
2019-03-18T10:32:49.082Z,8.86
2019-03-18T10:33:49.093Z,8.82
2019-03-18T10:34:49.077Z,8.85
2019-03-18T10:35:49.050Z,8.86
2019-03-18T10:36:49.036Z,8.97
2019-03-18T10:37:49.051Z,8.98
2019-03-18T10:38:49.016Z,8.85
2019-03-18T10:39:49.009Z,8.93
2019-03-18T10:40:48.996Z,8.91
2019-03-18T10:41:48.983Z,8.88
2019-03-18T10:42:48.978Z,8.93
2019-03-18T10:43:48.965Z,9.06
2019-03-18T10:44:48.952Z,9.17
2019-03-18T10:45:48.942Z,9.20
2019-03-18T10:46:48.933Z,9.26
2019-03-18T10:47:48.936Z,9.44
2019-03-18T10:48:48.909Z,9.44
2019-03-18T10:49:48.898Z,9.48
2019-03-18T10:50:48.888Z,9.42
2019-03-18T10:51:48.892Z,9.48
2019-03-18T10:52:48.898Z,9.38
2019-03-18T10:53:48.866Z,9.42
2019-03-18T10:54:48.862Z,9.23
2019-03-18T10:55:48.835Z,9.35
2019-03-18T10:56:48.827Z,9.23
2019-03-18T10:57:48.827Z,9.31
2019-03-18T10:58:48.811Z,9.42
2019-03-18T10:59:48.793Z,9.35
2019-03-18T11:00:48.785Z,9.35
2019-03-18T11:01:48.776Z,9.31
2019-03-18T11:02:48.777Z,9.50
2019-03-18T11:03:48.752Z,9.52
2019-03-18T11:04:48.746Z,9.48
2019-03-18T11:05:48.731Z,9.59
2019-03-18T11:06:48.721Z,9.65
2019-03-18T11:07:51.551Z,9.56
2019-03-18T11:08:48.698Z,9.49
2019-03-18T11:09:48.714Z,9.34
2019-03-18T11:10:48.678Z,9.37
2019-03-18T11:11:48.665Z,9.35
2019-03-18T11:12:48.657Z,9.52
2019-03-18T11:13:48.676Z,9.44
2019-03-18T11:14:48.639Z,9.35
2019-03-18T11:15:48.624Z,9.15
2019-03-18T11:16:48.614Z,9.10
2019-03-18T11:17:48.606Z,9.06
2019-03-18T11:18:48.605Z,9.17
2019-03-18T11:19:57.763Z,9.16
2019-03-18T11:20:49.584Z,9.24
2019-03-18T11:21:48.561Z,9.31
2019-03-18T11:22:48.551Z,9.41
2019-03-18T11:23:48.556Z,9.48
2019-03-18T11:24:48.532Z,9.49
2019-03-18T11:25:48.555Z,9.52
2019-03-18T11:26:48.516Z,9.48
2019-03-18T11:27:48.497Z,9.49
2019-03-18T11:28:48.500Z,9.55
2019-03-18T11:29:48.476Z,9.81
2019-03-18T11:30:48.465Z,9.91
2019-03-18T11:31:48.455Z,10.09
2019-03-18T11:32:48.444Z,10.32
2019-03-18T11:33:48.444Z,10.34
2019-03-18T11:34:48.424Z,10.35
2019-03-18T11:35:48.414Z,10.36
2019-03-18T11:36:48.424Z,10.31
2019-03-18T11:37:48.400Z,10.32
2019-03-18T11:38:48.400Z,10.14
2019-03-18T11:39:48.373Z,10.11
2019-03-18T11:40:48.359Z,10.10
2019-03-18T11:41:48.354Z,10.20
2019-03-18T11:42:48.346Z,10.24
2019-03-18T11:43:48.346Z,10.31
2019-03-18T11:44:48.318Z,10.32
2019-03-18T11:45:48.312Z,10.32
2019-03-18T11:46:48.303Z,10.39
2019-03-18T11:47:48.295Z,10.32
2019-03-18T11:48:48.285Z,10.34
2019-03-18T11:49:48.264Z,10.49
2019-03-18T11:50:48.254Z,10.32
2019-03-18T11:51:48.257Z,10.32
2019-03-18T11:52:48.236Z,10.28
2019-03-18T11:53:48.264Z,10.14
2019-03-18T11:54:48.224Z,10.16
2019-03-18T11:55:48.207Z,9.93
2019-03-18T11:56:48.190Z,9.92
2019-03-18T11:57:48.181Z,10.16
2019-03-18T11:58:48.179Z,10.20
2019-03-18T11:59:48.164Z,10.17
2019-03-18T12:00:48.148Z,10.36
2019-03-18T12:01:48.137Z,10.69
2019-03-18T12:02:48.126Z,10.76
2019-03-18T12:03:48.143Z,11.01
2019-03-18T12:04:48.106Z,11.28
2019-03-18T12:05:48.098Z,11.39
2019-03-18T12:06:48.095Z,11.62
2019-03-18T12:07:48.077Z,11.78
2019-03-18T12:08:48.063Z,11.74
2019-03-18T12:09:48.066Z,11.75
2019-03-18T12:10:48.043Z,11.70
2019-03-18T12:11:48.040Z,11.79
2019-03-18T12:12:48.022Z,11.67
2019-03-18T12:13:48.011Z,11.44
2019-03-18T12:14:48.034Z,11.39
2019-03-18T12:15:47.991Z,11.31
2019-03-18T12:16:47.978Z,11.46
2019-03-18T12:17:47.969Z,11.54
2019-03-18T12:18:47.958Z,11.94
2019-03-18T12:19:47.962Z,12.34
2019-03-18T12:20:47.936Z,11.90
2019-03-18T12:21:47.926Z,11.64
2019-03-18T12:22:47.917Z,11.46
2019-03-18T12:23:47.916Z,11.45
2019-03-18T12:24:47.904Z,11.54
2019-03-18T12:25:47.883Z,12.15
2019-03-18T12:26:49.258Z,13.61
2019-03-18T12:27:47.865Z,12.98
2019-03-18T12:28:47.852Z,12.58
2019-03-18T12:29:47.855Z,12.52
2019-03-18T12:30:47.839Z,12.52
2019-03-18T12:31:47.820Z,12.63
2019-03-18T12:32:47.808Z,14.08
2019-03-18T12:33:47.798Z,16.95
2019-03-18T12:34:47.799Z,19.13
2019-03-18T12:35:47.779Z,16.47
2019-03-18T12:36:47.766Z,15.01
2019-03-18T12:37:47.760Z,14.02
2019-03-18T12:38:47.746Z,13.07
2019-03-18T12:39:47.747Z,12.54
2019-03-18T12:40:47.724Z,12.29
2019-03-18T12:41:47.714Z,12.07
2019-03-18T12:42:47.711Z,11.93
2019-03-18T12:43:47.693Z,12.30
2019-03-18T12:44:47.696Z,12.05
2019-03-18T12:45:47.683Z,12.03
2019-03-18T12:46:47.662Z,12.01
2019-03-18T12:47:47.650Z,12.04
2019-03-18T12:48:47.641Z,11.98
2019-03-18T12:49:47.640Z,12.08
2019-03-18T12:50:55.741Z,11.90
2019-03-18T12:51:48.609Z,11.85
2019-03-18T12:52:47.598Z,11.62
2019-03-18T12:53:47.586Z,11.51
2019-03-18T12:54:47.587Z,11.78
2019-03-18T12:55:47.565Z,11.81
2019-03-18T12:56:47.553Z,11.78
2019-03-18T12:57:47.549Z,11.64
2019-03-18T12:58:47.534Z,11.56
2019-03-18T12:59:47.534Z,11.48
2019-03-18T13:00:47.512Z,11.30
2019-03-18T13:01:47.501Z,11.28
2019-03-18T13:02:47.492Z,11.36
2019-03-18T13:03:47.482Z,11.62
2019-03-18T13:04:47.482Z,11.81
2019-03-18T13:05:47.463Z,12.04
2019-03-18T13:06:47.449Z,12.34
2019-03-18T13:07:47.437Z,12.46
2019-03-18T13:08:47.434Z,12.51
2019-03-18T13:09:47.427Z,12.58
2019-03-18T13:10:47.424Z,12.62
2019-03-18T13:11:47.399Z,12.58
2019-03-18T13:12:47.413Z,12.51
2019-03-18T13:13:47.379Z,13.72
2019-03-18T13:14:47.391Z,19.06
2019-03-18T13:15:47.355Z,17.84